Time;durP1;ratioP1;P1;durP2;ratioP2;P2;SDS_P1;SDS_P2;PMS_P1;PMS_P2;Temp;Humidity;BMP_temperature;BMP_pressure;BME280_temperature;BME280_humidity;BME280_pressure;Samples;Min_cycle;Max_cycle;Signal;HPM_P1;HPM_P2
2021/07/31 00:01:03;;;;;;;12.32;4.50;;;;;;;;;;5048465;28;20530;-65
2021/07/31 00:03:29;;;;;;;18.05;4.10;;;;;;;;;;5047975;28;20087;-65
2021/07/31 00:05:55;;;;;;;27.00;6.03;;;;;;;;;;5049796;28;20446;-66
2021/07/31 00:08:22;;;;;;;20.38;6.07;;;;;;;;;;5049935;28;20053;-67
2021/07/31 00:10:48;;;;;;;25.33;5.78;;;;;;;;;;5049909;28;20032;-67
2021/07/31 00:13:14;;;;;;;31.20;6.38;;;;;;;;;;5063471;28;20021;-66
2021/07/31 00:15:40;;;;;;;19.38;7.10;;;;;;;;;;5045942;28;20024;-67
2021/07/31 00:18:06;;;;;;;24.83;6.88;;;;;;;;;;5052780;28;20033;-66
2021/07/31 00:20:32;;;;;;;23.17;7.15;;;;;;;;;;5050239;28;20033;-68
2021/07/31 00:22:58;;;;;;;20.45;6.47;;;;;;;;;;5052108;28;20036;-65
2021/07/31 00:25:24;;;;;;;18.27;5.97;;;;;;;;;;5060153;28;20037;-68
2021/07/31 00:27:50;;;;;;;17.40;5.85;;;;;;;;;;5065259;28;20039;-66
2021/07/31 00:30:16;;;;;;;32.67;8.05;;;;;;;;;;5055279;28;20033;-67
2021/07/31 00:32:42;;;;;;;17.42;5.15;;;;;;;;;;5048877;28;20079;-65
2021/07/31 00:35:09;;;;;;;21.60;6.35;;;;;;;;;;5050775;28;20033;-68
2021/07/31 00:37:35;;;;;;;16.33;5.80;;;;;;;;;;5050378;28;20128;-67
2021/07/31 00:40:01;;;;;;;19.83;6.35;;;;;;;;;;5049471;28;20302;-66
2021/07/31 00:42:27;;;;;;;19.90;6.30;;;;;;;;;;5058108;28;20021;-68
2021/07/31 00:44:53;;;;;;;15.05;6.03;;;;;;;;;;5050059;28;20040;-67
2021/07/31 00:47:19;;;;;;;17.77;6.03;;;;;;;;;;5048475;28;20029;-66
2021/07/31 00:49:45;;;;;;;27.30;7.40;;;;;;;;;;5049702;28;20025;-66
2021/07/31 00:52:11;;;;;;;21.67;7.03;;;;;;;;;;5053332;28;20055;-68
2021/07/31 00:54:37;;;;;;;31.30;7.15;;;;;;;;;;5048668;28;20013;-68
2021/07/31 00:57:03;;;;;;;23.48;7.50;;;;;;;;;;5049894;28;20028;-66
2021/07/31 00:59:29;;;;;;;19.30;7.15;;;;;;;;;;5048678;28;20104;-68
2021/07/31 01:01:56;;;;;;;18.80;7.07;;;;;;;;;;5049549;28;20071;-68
2021/07/31 01:04:22;;;;;;;18.23;6.35;;;;;;;;;;5047703;28;20040;-67
2021/07/31 01:06:48;;;;;;;18.25;6.53;;;;;;;;;;5051337;28;20039;-66
2021/07/31 01:09:14;;;;;;;18.13;6.90;;;;;;;;;;5051831;28;20512;-66
2021/07/31 01:11:40;;;;;;;15.25;6.35;;;;;;;;;;5067281;28;20025;-69
2021/07/31 01:14:07;;;;;;;17.50;6.10;;;;;;;;;;5060100;28;20029;-67
2021/07/31 01:16:33;;;;;;;22.27;6.78;;;;;;;;;;5057109;28;20021;-69
2021/07/31 01:18:59;;;;;;;16.75;6.13;;;;;;;;;;5057330;28;20032;-67
2021/07/31 01:21:37;;;;;;;24.05;5.88;;;;;;;;;;5055506;28;20187;-67
2021/07/31 01:24:04;;;;;;;20.45;6.65;;;;;;;;;;5053229;28;20040;-67
2021/07/31 01:26:30;;;;;;;16.27;6.03;;;;;;;;;;5057791;28;20111;-67
2021/07/31 01:28:56;;;;;;;18.80;6.43;;;;;;;;;;5057290;28;20084;-68
2021/07/31 01:31:22;;;;;;;18.80;5.18;;;;;;;;;;5052976;28;20021;-66
2021/07/31 01:33:48;;;;;;;17.38;5.65;;;;;;;;;;5056248;28;20556;-67
2021/07/31 01:36:14;;;;;;;16.55;5.95;;;;;;;;;;5056900;28;20045;-67
2021/07/31 01:38:40;;;;;;;17.20;5.35;;;;;;;;;;5057075;28;20413;-68
2021/07/31 01:41:06;;;;;;;14.30;4.93;;;;;;;;;;5060030;28;20032;-68
2021/07/31 01:43:32;;;;;;;19.08;4.97;;;;;;;;;;5059882;28;20033;-65
2021/07/31 01:45:59;;;;;;;19.17;4.60;;;;;;;;;;5052292;28;20042;-69
2021/07/31 01:48:25;;;;;;;15.18;3.92;;;;;;;;;;5054948;28;20182;-67
2021/07/31 01:50:51;;;;;;;16.98;5.20;;;;;;;;;;5054429;28;20025;-67
2021/07/31 01:53:17;;;;;;;16.58;5.07;;;;;;;;;;5058030;28;20104;-68
2021/07/31 01:55:43;;;;;;;13.48;4.90;;;;;;;;;;5036159;28;20582;-67
2021/07/31 01:58:09;;;;;;;16.70;5.22;;;;;;;;;;5057786;28;20043;-68
2021/07/31 02:00:35;;;;;;;20.70;5.80;;;;;;;;;;5058960;28;20029;-67
2021/07/31 02:03:01;;;;;;;17.13;5.97;;;;;;;;;;5053373;28;20472;-64
2021/07/31 02:05:27;;;;;;;16.58;5.00;;;;;;;;;;5051248;28;20103;-66
2021/07/31 02:07:53;;;;;;;25.55;5.25;;;;;;;;;;5055341;28;20033;-67
2021/07/31 02:10:19;;;;;;;16.83;6.80;;;;;;;;;;5051817;28;20036;-68
2021/07/31 02:12:45;;;;;;;15.15;4.93;;;;;;;;;;5052122;28;20515;-68
2021/07/31 02:15:11;;;;;;;19.48;4.85;;;;;;;;;;5061084;28;20041;-67
2021/07/31 02:17:37;;;;;;;11.70;4.68;;;;;;;;;;5051275;28;20025;-64
2021/07/31 02:20:04;;;;;;;17.95;5.93;;;;;;;;;;5050946;28;20488;-65
2021/07/31 02:22:30;;;;;;;19.60;5.25;;;;;;;;;;5052114;28;20052;-65
2021/07/31 02:24:56;;;;;;;15.77;5.93;;;;;;;;;;5069736;28;20028;-67
2021/07/31 02:27:22;;;;;;;16.40;4.78;;;;;;;;;;5059028;28;20021;-67
2021/07/31 02:29:49;;;;;;;17.73;5.32;;;;;;;;;;5055841;28;20507;-66
2021/07/31 02:32:15;;;;;;;19.83;4.75;;;;;;;;;;5050367;28;20115;-65
2021/07/31 02:34:41;;;;;;;15.88;5.25;;;;;;;;;;5054063;28;20033;-66
2021/07/31 02:37:07;;;;;;;20.00;5.70;;;;;;;;;;5051715;28;20037;-66
2021/07/31 02:39:33;;;;;;;16.10;4.63;;;;;;;;;;5051344;28;20055;-67
2021/07/31 02:41:59;;;;;;;21.25;5.55;;;;;;;;;;5042612;28;20036;-68
2021/07/31 02:44:25;;;;;;;12.60;4.38;;;;;;;;;;5048678;28;20646;-65
2021/07/31 02:46:51;;;;;;;16.23;4.75;;;;;;;;;;5047241;28;20053;-66
2021/07/31 02:49:17;;;;;;;15.32;3.88;;;;;;;;;;5051913;28;20032;-66
2021/07/31 02:51:43;;;;;;;12.85;4.93;;;;;;;;;;5050414;28;20032;-65
2021/07/31 02:54:09;;;;;;;16.63;5.90;;;;;;;;;;5050280;28;20036;-68
2021/07/31 02:56:35;;;;;;;19.02;4.30;;;;;;;;;;5051991;28;20028;-68
2021/07/31 02:59:01;;;;;;;14.20;4.75;;;;;;;;;;5054452;28;20028;-67
2021/07/31 03:01:27;;;;;;;13.88;4.03;;;;;;;;;;5052022;28;20082;-67
2021/07/31 03:03:55;;;;;;;14.75;4.63;;;;;;;;;;5054541;28;20019;-67
2021/07/31 03:06:21;;;;;;;12.60;4.13;;;;;;;;;;5052494;28;20033;-67
2021/07/31 03:08:47;;;;;;;13.45;4.25;;;;;;;;;;5051015;28;20074;-67
2021/07/31 03:11:13;;;;;;;20.92;4.15;;;;;;;;;;5048902;28;20045;-67
2021/07/31 03:13:39;;;;;;;12.10;3.88;;;;;;;;;;5048147;28;20594;-67
2021/07/31 03:16:07;;;;;;;12.88;3.63;;;;;;;;;;5051433;28;20052;-66
2021/07/31 03:18:33;;;;;;;16.17;3.92;;;;;;;;;;5051541;28;20027;-68
2021/07/31 03:20:59;;;;;;;11.25;3.90;;;;;;;;;;5048654;28;20018;-68
2021/07/31 03:23:25;;;;;;;12.57;3.20;;;;;;;;;;5037106;28;20029;-68
2021/07/31 03:25:58;;;;;;;13.50;3.72;;;;;;;;;;5069026;28;20032;-68
2021/07/31 03:28:25;;;;;;;11.20;3.65;;;;;;;;;;5062289;28;20116;-69
2021/07/31 03:30:51;;;;;;;12.00;3.35;;;;;;;;;;5055730;28;20035;-67
2021/07/31 03:33:17;;;;;;;11.50;3.35;;;;;;;;;;5050029;28;20033;-68
2021/07/31 03:35:44;;;;;;;17.52;3.50;;;;;;;;;;5051326;28;20017;-67
2021/07/31 03:38:10;;;;;;;9.30;3.50;;;;;;;;;;5051007;28;20052;-68
2021/07/31 03:40:36;;;;;;;15.85;4.78;;;;;;;;;;5064565;28;20024;-68
2021/07/31 03:43:03;;;;;;;11.80;3.47;;;;;;;;;;5052095;28;20048;-68
2021/07/31 03:45:29;;;;;;;14.60;4.65;;;;;;;;;;5049229;28;20071;-68
2021/07/31 03:47:55;;;;;;;12.00;4.57;;;;;;;;;;5050583;28;20021;-68
2021/07/31 03:50:21;;;;;;;14.95;4.63;;;;;;;;;;5059775;28;20530;-68
2021/07/31 03:52:48;;;;;;;15.18;4.22;;;;;;;;;;5051585;28;20040;-65
2021/07/31 03:55:14;;;;;;;16.52;4.45;;;;;;;;;;5054181;28;20719;-67
2021/07/31 03:57:40;;;;;;;15.95;4.03;;;;;;;;;;5050241;28;20024;-66
2021/07/31 04:00:07;;;;;;;14.48;4.53;;;;;;;;;;5062777;28;20017;-68
2021/07/31 04:02:33;;;;;;;17.60;3.90;;;;;;;;;;5050231;28;20040;-69
2021/07/31 04:04:59;;;;;;;13.60;4.63;;;;;;;;;;5054936;28;20055;-68
2021/07/31 04:07:26;;;;;;;14.82;4.32;;;;;;;;;;5055169;28;20029;-68
2021/07/31 04:09:52;;;;;;;10.52;3.63;;;;;;;;;;5050747;28;20037;-67
2021/07/31 04:12:18;;;;;;;13.82;4.65;;;;;;;;;;5050517;28;20052;-67
2021/07/31 04:14:45;;;;;;;13.35;3.13;;;;;;;;;;5050572;28;20040;-67
2021/07/31 04:17:12;;;;;;;14.02;3.08;;;;;;;;;;5051435;28;20032;-69
2021/07/31 04:19:38;;;;;;;19.17;3.28;;;;;;;;;;5050454;28;20029;-68
2021/07/31 04:22:04;;;;;;;15.70;3.75;;;;;;;;;;5054870;28;20111;-67
2021/07/31 04:24:30;;;;;;;10.90;2.90;;;;;;;;;;5047972;28;20035;-67
2021/07/31 04:26:56;;;;;;;9.90;3.30;;;;;;;;;;5054038;28;20048;-67
2021/07/31 04:29:22;;;;;;;14.07;3.17;;;;;;;;;;5050327;28;20059;-66
2021/07/31 04:31:49;;;;;;;16.40;3.83;;;;;;;;;;5052565;28;20031;-68
2021/07/31 04:34:15;;;;;;;14.63;4.32;;;;;;;;;;5046306;28;20052;-66
2021/07/31 04:36:41;;;;;;;11.95;4.10;;;;;;;;;;5060054;28;20552;-67
2021/07/31 04:39:07;;;;;;;12.18;3.55;;;;;;;;;;5049127;28;20047;-65
2021/07/31 04:41:34;;;;;;;18.33;4.88;;;;;;;;;;5054813;28;20029;-66
2021/07/31 04:44:00;;;;;;;13.27;4.80;;;;;;;;;;5047400;28;20078;-68
2021/07/31 04:46:26;;;;;;;16.25;5.82;;;;;;;;;;5052693;28;20114;-68
2021/07/31 04:48:52;;;;;;;16.60;5.03;;;;;;;;;;5040817;28;20072;-68
2021/07/31 04:51:18;;;;;;;17.33;5.75;;;;;;;;;;5044785;28;20110;-68
2021/07/31 04:53:45;;;;;;;9.18;4.47;;;;;;;;;;5050493;28;20341;-67
2021/07/31 04:56:11;;;;;;;15.18;5.40;;;;;;;;;;5053836;28;20032;-66
2021/07/31 04:58:37;;;;;;;12.80;5.20;;;;;;;;;;5049881;28;20025;-67
2021/07/31 05:01:03;;;;;;;10.25;3.97;;;;;;;;;;5056309;28;20032;-68
2021/07/31 05:03:30;;;;;;;11.18;4.53;;;;;;;;;;5049473;28;20052;-63
2021/07/31 05:05:56;;;;;;;13.85;3.92;;;;;;;;;;5051739;28;20078;-68
2021/07/31 05:08:22;;;;;;;16.00;5.25;;;;;;;;;;5049033;28;20029;-67
2021/07/31 05:10:49;;;;;;;20.13;5.35;;;;;;;;;;5053680;28;20765;-66
2021/07/31 05:13:15;;;;;;;18.55;6.18;;;;;;;;;;5050016;28;20028;-67
2021/07/31 05:15:43;;;;;;;19.42;5.88;;;;;;;;;;5056915;28;20029;-67
2021/07/31 05:18:09;;;;;;;12.38;5.30;;;;;;;;;;5047924;28;20493;-67
2021/07/31 05:20:39;;;;;;;15.45;6.28;;;;;;;;;;5050614;28;20033;-67
2021/07/31 05:23:05;;;;;;;19.80;5.63;;;;;;;;;;5057311;28;20082;-67
2021/07/31 05:25:31;;;;;;;21.65;6.40;;;;;;;;;;5056334;28;20043;-67
2021/07/31 05:27:57;;;;;;;15.68;6.18;;;;;;;;;;5048569;28;20025;-66
2021/07/31 05:30:23;;;;;;;22.23;6.60;;;;;;;;;;5049486;28;20386;-68
2021/07/31 05:32:50;;;;;;;16.02;5.88;;;;;;;;;;5051846;28;20096;-67
2021/07/31 05:35:16;;;;;;;19.00;5.97;;;;;;;;;;5047841;28;20025;-67
2021/07/31 05:37:42;;;;;;;20.88;6.00;;;;;;;;;;5052781;28;20084;-67
2021/07/31 05:40:08;;;;;;;17.75;5.50;;;;;;;;;;5048824;28;20465;-67
2021/07/31 05:42:34;;;;;;;15.80;5.93;;;;;;;;;;5051974;28;20029;-67
2021/07/31 05:45:01;;;;;;;15.43;5.22;;;;;;;;;;5048217;28;20024;-67
2021/07/31 05:47:28;;;;;;;17.90;5.07;;;;;;;;;;5049286;28;20123;-66
2021/07/31 05:49:55;;;;;;;16.55;5.63;;;;;;;;;;5045147;28;20117;-66
2021/07/31 05:52:25;;;;;;;13.88;5.22;;;;;;;;;;5053025;28;20029;-67
2021/07/31 05:54:51;;;;;;;13.32;4.30;;;;;;;;;;5053609;28;20037;-67
2021/07/31 05:57:17;;;;;;;14.10;4.63;;;;;;;;;;5051570;28;20025;-67
2021/07/31 05:59:43;;;;;;;13.40;4.28;;;;;;;;;;5052304;28;20029;-66
2021/07/31 06:02:12;;;;;;;15.65;4.95;;;;;;;;;;5053038;28;20021;-69
2021/07/31 06:04:38;;;;;;;9.65;4.18;;;;;;;;;;5051510;28;20036;-67
2021/07/31 06:07:06;;;;;;;10.40;3.92;;;;;;;;;;5052098;28;20032;-67
2021/07/31 06:09:33;;;;;;;7.60;3.30;;;;;;;;;;5050625;28;20037;-69
2021/07/31 06:11:59;;;;;;;14.63;4.05;;;;;;;;;;5049595;28;20033;-67
2021/07/31 06:14:25;;;;;;;14.25;4.55;;;;;;;;;;5050614;28;20120;-67
2021/07/31 06:16:51;;;;;;;16.33;4.07;;;;;;;;;;5050625;28;20052;-69
2021/07/31 06:19:17;;;;;;;15.68;5.00;;;;;;;;;;5052523;28;20021;-68
2021/07/31 06:21:43;;;;;;;17.52;5.03;;;;;;;;;;5048848;28;20025;-68
2021/07/31 06:24:10;;;;;;;15.77;4.30;;;;;;;;;;5047563;28;20032;-67
2021/07/31 06:26:36;;;;;;;9.75;4.00;;;;;;;;;;5050488;28;20519;-68
2021/07/31 06:29:02;;;;;;;15.10;4.70;;;;;;;;;;5052329;28;20520;-67
2021/07/31 06:31:28;;;;;;;12.48;4.82;;;;;;;;;;5049443;28;20048;-68
2021/07/31 06:33:54;;;;;;;14.13;4.78;;;;;;;;;;5049939;28;20025;-66
2021/07/31 06:36:20;;;;;;;16.45;4.10;;;;;;;;;;5051938;28;20037;-67
2021/07/31 06:38:46;;;;;;;13.48;4.57;;;;;;;;;;5057579;28;20021;-67
2021/07/31 06:41:13;;;;;;;15.38;4.22;;;;;;;;;;5056778;28;20143;-67
2021/07/31 06:43:39;;;;;;;19.05;4.47;;;;;;;;;;5056486;28;20068;-68
2021/07/31 06:46:24;;;;;;;12.70;3.85;;;;;;;;;;5059161;28;20384;-67
2021/07/31 06:48:51;;;;;;;13.60;3.47;;;;;;;;;;5055415;28;20464;-68
2021/07/31 06:51:19;;;;;;;15.23;3.33;;;;;;;;;;5054010;28;20031;-67
2021/07/31 06:53:45;;;;;;;14.13;3.70;;;;;;;;;;5051218;28;20021;-68
2021/07/31 06:56:11;;;;;;;15.40;4.57;;;;;;;;;;5052193;28;20615;-70
2021/07/31 06:58:37;;;;;;;13.95;4.30;;;;;;;;;;5051491;28;20029;-69
2021/07/31 07:01:03;;;;;;;15.43;3.70;;;;;;;;;;5056946;28;20036;-70
2021/07/31 07:03:29;;;;;;;10.45;3.50;;;;;;;;;;5061912;28;20132;-67
2021/07/31 07:05:55;;;;;;;12.00;3.30;;;;;;;;;;5051169;28;20549;-66
2021/07/31 07:08:22;;;;;;;15.80;3.28;;;;;;;;;;5051458;28;20107;-68
2021/07/31 07:10:48;;;;;;;9.15;3.20;;;;;;;;;;5049807;28;20493;-68
2021/07/31 07:13:14;;;;;;;10.45;3.30;;;;;;;;;;5059257;28;20040;-69
2021/07/31 07:15:40;;;;;;;14.25;3.22;;;;;;;;;;5046940;28;20103;-66
2021/07/31 07:18:06;;;;;;;8.43;2.83;;;;;;;;;;5050986;28;20059;-67
2021/07/31 07:20:32;;;;;;;10.05;3.70;;;;;;;;;;5051823;28;20025;-67
2021/07/31 07:22:58;;;;;;;14.05;3.67;;;;;;;;;;5050551;28;20013;-67
2021/07/31 07:25:24;;;;;;;9.23;3.00;;;;;;;;;;5038742;28;20022;-67
2021/07/31 07:27:50;;;;;;;13.70;3.60;;;;;;;;;;5031804;28;20126;-68
2021/07/31 07:30:16;;;;;;;14.45;4.78;;;;;;;;;;5049346;28;20472;-68
2021/07/31 07:32:42;;;;;;;13.02;4.53;;;;;;;;;;5045119;28;20029;-66
2021/07/31 07:35:08;;;;;;;11.15;4.40;;;;;;;;;;5040137;28;20125;-67
2021/07/31 07:37:34;;;;;;;10.82;4.15;;;;;;;;;;5039269;28;20049;-68
2021/07/31 07:40:00;;;;;;;12.45;4.53;;;;;;;;;;5048980;28;20033;-66
2021/07/31 07:42:27;;;;;;;14.98;4.25;;;;;;;;;;5051096;28;20112;-67
2021/07/31 07:44:53;;;;;;;14.40;4.70;;;;;;;;;;5049047;28;20017;-66
2021/07/31 07:47:19;;;;;;;13.88;4.25;;;;;;;;;;5050405;28;20492;-68
2021/07/31 07:49:45;;;;;;;12.63;4.80;;;;;;;;;;5049826;28;20025;-67
2021/07/31 07:52:11;;;;;;;19.75;5.28;;;;;;;;;;5046838;28;20029;-67
2021/07/31 07:54:37;;;;;;;9.40;4.50;;;;;;;;;;5042701;28;20017;-65
2021/07/31 07:57:06;;;;;;;17.48;4.70;;;;;;;;;;5049318;28;20043;-67
2021/07/31 07:59:34;;;;;;;13.75;4.30;;;;;;;;;;5048908;28;20100;-68
2021/07/31 08:02:00;;;;;;;16.85;5.70;;;;;;;;;;5045503;28;20043;-67
2021/07/31 08:04:26;;;;;;;11.98;4.28;;;;;;;;;;5044557;28;20681;-67
2021/07/31 08:06:52;;;;;;;10.40;4.05;;;;;;;;;;5046196;28;20802;-69
2021/07/31 08:09:18;;;;;;;9.60;4.72;;;;;;;;;;5047749;28;20036;-69
2021/07/31 08:11:44;;;;;;;16.30;6.05;;;;;;;;;;5044462;28;20112;-68
2021/07/31 08:14:11;;;;;;;12.93;5.07;;;;;;;;;;5042702;28;20112;-68
2021/07/31 08:16:37;;;;;;;20.45;5.82;;;;;;;;;;5040478;28;20045;-68
2021/07/31 08:19:06;;;;;;;11.02;5.30;;;;;;;;;;5038719;28;21980;-68
2021/07/31 08:21:32;;;;;;;12.18;4.80;;;;;;;;;;5042902;28;20086;-68
2021/07/31 08:23:58;;;;;;;12.93;4.78;;;;;;;;;;5045238;28;20044;-69
2021/07/31 08:26:24;;;;;;;11.18;4.22;;;;;;;;;;5045752;28;20021;-68
2021/07/31 08:28:50;;;;;;;10.23;4.22;;;;;;;;;;5045512;28;20033;-66
2021/07/31 08:31:17;;;;;;;11.88;4.53;;;;;;;;;;5047612;28;20032;-68
2021/07/31 08:33:43;;;;;;;10.82;4.57;;;;;;;;;;5042944;28;20103;-66
2021/07/31 08:36:09;;;;;;;14.07;4.68;;;;;;;;;;5046791;28;20112;-67
2021/07/31 08:38:36;;;;;;;11.10;4.20;;;;;;;;;;5047252;28;20028;-68
2021/07/31 08:41:03;;;;;;;12.07;5.57;;;;;;;;;;5042275;28;20042;-68
2021/07/31 08:43:30;;;;;;;15.93;3.92;;;;;;;;;;5045276;28;20051;-66
2021/07/31 08:45:56;;;;;;;16.08;4.45;;;;;;;;;;5045301;28;20021;-67
2021/07/31 08:48:32;;;;;;;16.90;5.32;;;;;;;;;;5044606;28;20033;-69
2021/07/31 08:51:00;;;;;;;8.82;4.10;;;;;;;;;;5049178;28;20032;-67
2021/07/31 08:53:28;;;;;;;12.20;4.05;;;;;;;;;;5044604;28;20099;-66
2021/07/31 08:55:54;;;;;;;11.65;4.30;;;;;;;;;;5046618;28;20021;-67
2021/07/31 08:58:23;;;;;;;11.00;4.20;;;;;;;;;;5049971;28;20472;-67
2021/07/31 09:00:49;;;;;;;12.98;4.50;;;;;;;;;;5048822;28;20586;-66
2021/07/31 09:03:15;;;;;;;14.00;5.15;;;;;;;;;;5049050;28;20047;-68
2021/07/31 09:05:42;;;;;;;11.25;5.30;;;;;;;;;;5047691;28;20036;-68
2021/07/31 09:08:08;;;;;;;10.27;4.50;;;;;;;;;;5046918;28;20032;-68
2021/07/31 09:10:39;;;;;;;10.00;4.45;;;;;;;;;;5054964;28;20027;-68
2021/07/31 09:13:06;;;;;;;11.95;4.43;;;;;;;;;;5060850;28;20067;-68
2021/07/31 09:15:34;;;;;;;10.45;4.40;;;;;;;;;;5067039;28;20028;-68
2021/07/31 09:18:18;;;;;;;10.48;4.40;;;;;;;;;;5052170;28;20512;-69
2021/07/31 09:20:45;;;;;;;11.90;3.95;;;;;;;;;;5050705;28;20027;-68
2021/07/31 09:23:11;;;;;;;12.77;4.28;;;;;;;;;;5063982;28;20039;-67
2021/07/31 09:25:37;;;;;;;16.67;4.50;;;;;;;;;;5054146;28;20185;-68
2021/07/31 09:28:18;;;;;;;7.88;3.67;;;;;;;;;;5053067;28;20148;-67
2021/07/31 09:30:51;;;;;;;11.85;4.95;;;;;;;;;;5046364;28;20056;-67
2021/07/31 09:33:18;;;;;;;6.40;3.45;;;;;;;;;;5040859;28;20048;-67
2021/07/31 09:35:46;;;;;;;10.18;4.43;;;;;;;;;;5033232;28;20052;-67
2021/07/31 09:38:12;;;;;;;11.63;4.63;;;;;;;;;;5053202;28;20116;-68
2021/07/31 09:40:38;;;;;;;10.30;3.63;;;;;;;;;;5052069;28;20013;-66
2021/07/31 09:43:17;;;;;;;8.48;3.67;;;;;;;;;;5052287;28;20585;-67
2021/07/31 09:45:44;;;;;;;8.68;3.90;;;;;;;;;;5047769;28;20025;-67
2021/07/31 09:48:10;;;;;;;11.77;4.43;;;;;;;;;;5051196;28;20135;-67
2021/07/31 09:50:37;;;;;;;10.73;3.65;;;;;;;;;;5038973;28;20021;-65
2021/07/31 09:53:24;;;;;;;11.93;4.25;;;;;;;;;;5048933;28;20043;-67
2021/07/31 09:55:52;;;;;;;11.45;3.83;;;;;;;;;;5052523;28;20056;-68
2021/07/31 09:58:20;;;;;;;9.25;3.40;;;;;;;;;;5038939;28;20247;-67
2021/07/31 10:00:47;;;;;;;12.93;4.40;;;;;;;;;;5034389;28;20080;-67
2021/07/31 10:03:14;;;;;;;8.88;3.78;;;;;;;;;;5053197;28;20036;-66
2021/07/31 10:05:40;;;;;;;14.02;4.75;;;;;;;;;;5051408;28;20021;-67
2021/07/31 10:08:07;;;;;;;8.73;3.67;;;;;;;;;;5060348;28;20040;-67
2021/07/31 10:10:33;;;;;;;10.52;4.30;;;;;;;;;;5059781;28;20025;-65
2021/07/31 10:13:00;;;;;;;12.63;4.47;;;;;;;;;;5048282;28;20021;-67
2021/07/31 10:15:26;;;;;;;16.45;5.68;;;;;;;;;;5059773;28;20500;-67
2021/07/31 10:17:53;;;;;;;14.27;4.93;;;;;;;;;;5056319;28;20021;-67
2021/07/31 10:20:28;;;;;;;13.77;4.60;;;;;;;;;;5063440;28;20025;-67
2021/07/31 10:22:55;;;;;;;11.48;3.90;;;;;;;;;;5051044;28;20496;-66
2021/07/31 10:25:22;;;;;;;12.43;4.05;;;;;;;;;;5046486;28;20121;-66
2021/07/31 10:27:48;;;;;;;12.27;4.28;;;;;;;;;;5044305;28;20034;-66
2021/07/31 10:30:25;;;;;;;12.00;4.50;;;;;;;;;;5048846;28;20044;-66
2021/07/31 10:32:51;;;;;;;11.38;4.25;;;;;;;;;;5047307;28;20380;-67
2021/07/31 10:35:37;;;;;;;11.20;4.78;;;;;;;;;;5036095;28;20060;-66
2021/07/31 10:38:08;;;;;;;10.13;4.28;;;;;;;;;;5051439;28;20061;-66
2021/07/31 10:40:39;;;;;;;14.20;4.57;;;;;;;;;;5054952;28;20404;-66
2021/07/31 10:43:06;;;;;;;12.65;4.25;;;;;;;;;;5051361;28;20032;-64
2021/07/31 10:45:33;;;;;;;9.32;4.40;;;;;;;;;;5050202;28;20032;-67
2021/07/31 10:48:00;;;;;;;10.48;3.90;;;;;;;;;;5047491;28;20086;-66
2021/07/31 10:50:26;;;;;;;10.55;5.68;;;;;;;;;;5056509;28;20017;-66
2021/07/31 10:53:12;;;;;;;7.15;3.88;;;;;;;;;;5041735;28;20029;-67
2021/07/31 10:55:39;;;;;;;11.35;4.10;;;;;;;;;;5056348;28;20520;-66
2021/07/31 10:58:06;;;;;;;10.32;4.20;;;;;;;;;;5054739;28;20036;-66
2021/07/31 11:00:34;;;;;;;10.65;4.20;;;;;;;;;;5061288;28;20021;-66
2021/07/31 11:03:03;;;;;;;10.32;4.75;;;;;;;;;;5050353;28;20109;-66
2021/07/31 11:05:49;;;;;;;10.10;4.05;;;;;;;;;;5049839;28;20009;-65
2021/07/31 11:08:21;;;;;;;12.07;3.92;;;;;;;;;;5031811;28;20271;-65
2021/07/31 11:10:47;;;;;;;;;;;;;;;;;;5062279;28;20055;-64
2021/07/31 11:13:33;;;;;;;10.73;3.72;;;;;;;;;;5052684;28;20454;-65
2021/07/31 11:15:59;;;;;;;8.45;4.15;;;;;;;;;;5051567;28;20013;-65
2021/07/31 11:18:26;;;;;;;11.85;5.22;;;;;;;;;;5071508;28;20024;-66
2021/07/31 11:20:52;;;;;;;14.18;5.03;;;;;;;;;;5062256;28;20051;-65
2021/07/31 11:23:19;;;;;;;11.35;3.92;;;;;;;;;;5055354;28;20111;-66
2021/07/31 11:25:45;;;;;;;12.68;5.30;;;;;;;;;;5045942;28;20035;-66
2021/07/31 11:28:11;;;;;;;9.05;4.32;;;;;;;;;;5054156;28;20079;-70
2021/07/31 11:30:45;;;;;;;16.90;4.90;;;;;;;;;;5052724;28;20025;-65
2021/07/31 11:33:18;;;;;;;9.70;4.50;;;;;;;;;;5058654;28;20020;-65
2021/07/31 11:35:44;;;;;;;12.82;4.57;;;;;;;;;;5051161;28;20045;-65
2021/07/31 11:38:29;;;;;;;15.30;4.72;;;;;;;;;;5052659;28;20033;-65
2021/07/31 11:40:59;;;;;;;10.63;4.32;;;;;;;;;;5052966;28;20431;-65
2021/07/31 11:43:25;;;;;;;8.20;4.80;;;;;;;;;;5060737;28;20029;-66
2021/07/31 11:45:55;;;;;;;10.30;4.07;;;;;;;;;;5050424;28;20476;-66
2021/07/31 11:48:23;;;;;;;18.83;5.18;;;;;;;;;;5051249;28;20505;-66
2021/07/31 11:51:05;;;;;;;13.82;4.45;;;;;;;;;;5052469;28;20029;-64
2021/07/31 11:53:32;;;;;;;12.10;4.55;;;;;;;;;;5053976;28;20024;-65
2021/07/31 11:56:17;;;;;;;12.02;4.70;;;;;;;;;;5067693;28;20027;-65
2021/07/31 11:58:44;;;;;;;11.38;4.28;;;;;;;;;;5051844;28;20021;-65
2021/07/31 12:01:10;;;;;;;12.45;4.88;;;;;;;;;;5056316;28;20062;-64
2021/07/31 12:03:43;;;;;;;10.50;4.93;;;;;;;;;;5052494;28;20025;-65
2021/07/31 12:06:28;;;;;;;9.68;4.38;;;;;;;;;;5056513;28;20094;-64
2021/07/31 12:08:57;;;;;;;9.45;4.13;;;;;;;;;;5062391;28;20036;-64
2021/07/31 12:11:32;;;;;;;9.38;4.25;;;;;;;;;;5057413;28;20024;-65
2021/07/31 12:13:58;;;;;;;9.02;4.53;;;;;;;;;;5054580;28;20074;-65
2021/07/31 12:16:28;;;;;;;13.00;4.80;;;;;;;;;;5056555;28;20021;-65
2021/07/31 12:18:54;;;;;;;14.60;4.38;;;;;;;;;;5059366;28;20017;-65
2021/07/31 12:21:24;;;;;;;14.55;4.65;;;;;;;;;;5058579;28;20031;-66
2021/07/31 12:23:50;;;;;;;6.68;4.00;;;;;;;;;;5056287;28;20024;-65
2021/07/31 12:26:27;;;;;;;15.07;5.57;;;;;;;;;;5053807;28;20263;-62
2021/07/31 12:28:55;;;;;;;8.57;4.40;;;;;;;;;;5059135;28;20059;-65
2021/07/31 12:31:22;;;;;;;8.35;4.78;;;;;;;;;;5059421;28;20029;-66
2021/07/31 12:33:48;;;;;;;10.27;4.93;;;;;;;;;;5054908;28;20029;-66
2021/07/31 12:36:14;;;;;;;13.23;4.30;;;;;;;;;;5057340;28;20052;-65
2021/07/31 12:38:40;;;;;;;12.18;5.07;;;;;;;;;;5058148;28;20382;-66
2021/07/31 12:41:06;;;;;;;13.73;4.35;;;;;;;;;;5056325;28;20331;-66
2021/07/31 12:43:32;;;;;;;11.90;4.40;;;;;;;;;;5057458;28;20371;-66
2021/07/31 12:46:00;;;;;;;8.68;4.50;;;;;;;;;;5058042;28;20504;-66
2021/07/31 12:48:26;;;;;;;12.52;4.15;;;;;;;;;;5059634;28;20051;-66
2021/07/31 12:50:52;;;;;;;13.98;4.82;;;;;;;;;;5058455;28;20408;-67
2021/07/31 12:53:19;;;;;;;8.75;3.85;;;;;;;;;;5055624;28;20017;-67
2021/07/31 12:55:46;;;;;;;11.95;4.82;;;;;;;;;;5053854;28;20068;-66
2021/07/31 12:58:12;;;;;;;12.40;5.32;;;;;;;;;;5055797;28;20028;-67
2021/07/31 13:00:39;;;;;;;14.13;4.97;;;;;;;;;;5056980;28;20516;-67
2021/07/31 13:03:06;;;;;;;11.80;5.70;;;;;;;;;;5058762;28;20037;-65
2021/07/31 13:05:32;;;;;;;24.02;6.10;;;;;;;;;;5055944;28;20055;-67
2021/07/31 13:07:59;;;;;;;19.20;4.88;;;;;;;;;;5059927;28;20112;-68
2021/07/31 13:10:26;;;;;;;10.25;4.10;;;;;;;;;;5050026;28;20038;-68
2021/07/31 13:12:52;;;;;;;10.82;4.20;;;;;;;;;;5062231;28;20033;-67
2021/07/31 13:15:21;;;;;;;9.70;3.85;;;;;;;;;;5060129;28;20082;-67
2021/07/31 13:17:47;;;;;;;8.52;4.22;;;;;;;;;;5061698;28;20021;-67
2021/07/31 13:20:13;;;;;;;10.30;4.38;;;;;;;;;;5061969;28;20029;-67
2021/07/31 13:22:45;;;;;;;7.57;3.95;;;;;;;;;;5060627;28;20087;-66
2021/07/31 13:25:11;;;;;;;8.80;4.43;;;;;;;;;;5055774;28;20059;-66
2021/07/31 13:27:37;;;;;;;8.30;4.40;;;;;;;;;;5060716;28;20028;-63
2021/07/31 13:30:04;;;;;;;17.25;5.13;;;;;;;;;;5060739;28;20357;-65
2021/07/31 13:32:33;;;;;;;10.68;3.92;;;;;;;;;;5062642;28;20104;-66
2021/07/31 13:35:03;;;;;;;13.15;4.05;;;;;;;;;;5055502;28;20029;-68
2021/07/31 13:37:36;;;;;;;9.68;4.05;;;;;;;;;;5058318;28;20319;-66
2021/07/31 13:40:16;;;;;;;10.55;3.92;;;;;;;;;;5059527;28;20029;-66
2021/07/31 13:42:45;;;;;;;9.55;4.25;;;;;;;;;;5058542;28;20032;-66
2021/07/31 13:45:13;;;;;;;10.52;3.63;;;;;;;;;;5057891;28;20591;-66
2021/07/31 13:47:39;;;;;;;9.00;4.20;;;;;;;;;;5060790;28;20240;-66
2021/07/31 13:50:08;;;;;;;6.63;3.72;;;;;;;;;;5062307;28;20057;-66
2021/07/31 13:52:34;;;;;;;9.95;4.25;;;;;;;;;;5062193;28;20029;-67
2021/07/31 13:55:00;;;;;;;14.48;4.78;;;;;;;;;;5058697;28;20020;-65
2021/07/31 13:57:27;;;;;;;11.10;4.90;;;;;;;;;;5058269;28;20025;-65
2021/07/31 13:59:53;;;;;;;10.45;4.10;;;;;;;;;;5053583;28;20070;-65
2021/07/31 14:02:20;;;;;;;8.93;4.10;;;;;;;;;;5052461;28;20029;-64
2021/07/31 14:04:46;;;;;;;10.18;4.40;;;;;;;;;;5049139;28;20025;-64
2021/07/31 14:07:12;;;;;;;11.88;4.72;;;;;;;;;;5050674;28;20045;-66
2021/07/31 14:09:38;;;;;;;7.85;4.38;;;;;;;;;;5052724;28;20032;-65
2021/07/31 14:12:04;;;;;;;10.07;3.90;;;;;;;;;;5052145;28;20071;-65
2021/07/31 14:14:30;;;;;;;13.63;4.90;;;;;;;;;;5045670;28;20021;-65
2021/07/31 14:16:56;;;;;;;11.77;4.70;;;;;;;;;;5047652;28;20021;-65
2021/07/31 14:19:22;;;;;;;14.55;5.25;;;;;;;;;;5050048;28;20040;-67
2021/07/31 14:21:48;;;;;;;12.82;5.18;;;;;;;;;;5050047;28;20029;-66
2021/07/31 14:24:14;;;;;;;13.52;4.32;;;;;;;;;;5048845;28;20029;-65
2021/07/31 14:26:42;;;;;;;9.32;4.53;;;;;;;;;;5050242;28;20110;-67
2021/07/31 14:29:10;;;;;;;7.35;4.18;;;;;;;;;;5050391;28;20052;-68
2021/07/31 14:31:36;;;;;;;10.88;4.40;;;;;;;;;;5049165;28;20093;-66